Time;durP1;ratioP1;P1;durP2;ratioP2;P2;SDS_P1;SDS_P2;PMS_P1;PMS_P2;Temp;Humidity;BMP_temperature;BMP_pressure;BME280_temperature;BME280_humidity;BME280_pressure;Samples;Min_cycle;Max_cycle;Signal;HPM_P1;HPM_P2
2023/03/16 00:00:31;;;;;;;12.40;7.22;;;6.10;99.90;;;;;;5076420;28;20544;-81
2023/03/16 00:02:57;;;;;;;7.57;5.75;;;6.00;99.90;;;;;;5074823;28;20208;-83
2023/03/16 00:05:24;;;;;;;9.93;6.57;;;6.00;99.90;;;;;;5076009;28;20646;-82
2023/03/16 00:07:50;;;;;;;9.95;6.38;;;6.00;99.90;;;;;;5074622;28;20197;-82
2023/03/16 00:10:16;;;;;;;7.93;6.63;;;5.90;99.90;;;;;;5075634;28;20526;-87
2023/03/16 00:12:43;;;;;;;11.90;6.90;;;6.00;99.90;;;;;;5091367;28;20221;-89
2023/03/16 00:15:10;;;;;;;8.35;6.30;;;6.00;99.90;;;;;;5091421;28;20232;-82
2023/03/16 00:17:36;;;;;;;9.82;6.63;;;6.00;99.90;;;;;;5075694;28;20221;-88
2023/03/16 00:20:05;;;;;;;9.33;6.40;;;6.00;99.90;;;;;;5074774;28;20669;-83
2023/03/16 00:22:32;;;;;;;8.70;5.90;;;6.00;99.90;;;;;;5074247;28;20193;-83
2023/03/16 00:24:59;;;;;;;9.18;6.40;;;6.00;99.90;;;;;;5074770;28;20514;-89
2023/03/16 00:27:25;;;;;;;7.28;5.22;;;6.00;99.90;;;;;;5074338;28;20737;-89
2023/03/16 00:29:55;;;;;;;8.15;6.25;;;6.00;99.90;;;;;;5075797;28;20222;-89
2023/03/16 00:32:30;;;;;;;9.70;6.43;;;6.00;99.90;;;;;;5074229;28;20228;-89
2023/03/16 00:34:56;;;;;;;11.35;6.50;;;6.00;99.90;;;;;;5076027;28;20233;-82
2023/03/16 00:37:24;;;;;;;8.95;5.70;;;6.00;99.90;;;;;;5075311;28;20274;-82
2023/03/16 00:39:51;;;;;;;9.35;7.22;;;6.00;99.90;;;;;;5075766;28;20173;-89
2023/03/16 00:42:18;;;;;;;10.75;8.00;;;6.00;99.90;;;;;;5073903;28;20242;-82
2023/03/16 00:44:44;;;;;;;10.77;6.68;;;6.00;99.90;;;;;;5074548;28;20184;-83
2023/03/16 00:47:13;;;;;;;11.20;6.80;;;6.10;99.90;;;;;;5075676;28;20193;-89
2023/03/16 00:49:41;;;;;;;11.82;5.85;;;6.10;99.90;;;;;;5077463;28;20429;-89
2023/03/16 00:52:08;;;;;;;7.80;6.00;;;6.10;99.90;;;;;;5073943;28;20217;-89
2023/03/16 00:54:34;;;;;;;8.43;5.68;;;6.10;99.90;;;;;;5073940;28;20655;-89
2023/03/16 00:57:00;;;;;;;7.90;5.60;;;6.10;99.90;;;;;;5074945;28;20201;-89
2023/03/16 00:59:27;;;;;;;12.05;5.88;;;6.10;99.90;;;;;;5075287;28;20176;-88
2023/03/16 01:01:54;;;;;;;10.25;6.57;;;6.10;99.90;;;;;;5074767;28;20201;-89
2023/03/16 01:04:20;;;;;;;10.43;6.22;;;6.00;99.90;;;;;;5073937;28;20174;-82
2023/03/16 01:06:46;;;;;;;10.73;5.75;;;6.00;99.90;;;;;;5074575;28;20204;-89
2023/03/16 01:09:13;;;;;;;9.40;6.18;;;6.00;99.90;;;;;;5073914;28;20196;-84
2023/03/16 01:11:41;;;;;;;9.95;5.50;;;6.00;99.90;;;;;;5074488;28;20169;-89
2023/03/16 01:14:09;;;;;;;8.93;5.68;;;6.00;99.90;;;;;;5090171;28;20263;-89
2023/03/16 01:16:34;;;;;;;7.15;5.70;;;5.90;99.90;;;;;;5074460;28;20315;-89
2023/03/16 01:19:00;;;;;;;8.55;5.43;;;5.90;99.90;;;;;;5073488;28;20184;-89
2023/03/16 01:21:26;;;;;;;8.23;5.10;;;5.80;99.90;;;;;;5090394;28;20547;-85
2023/03/16 01:23:52;;;;;;;9.03;5.20;;;5.80;99.90;;;;;;5074589;28;20253;-83
2023/03/16 01:26:19;;;;;;;10.85;6.13;;;5.70;99.90;;;;;;5073334;28;20472;-82
2023/03/16 01:28:46;;;;;;;11.05;6.45;;;5.60;99.90;;;;;;5074552;28;20201;-89
2023/03/16 01:31:13;;;;;;;13.65;6.10;;;5.50;99.90;;;;;;5075314;28;20667;-83
2023/03/16 01:33:40;;;;;;;9.98;5.70;;;5.50;99.90;;;;;;5075936;28;20657;-82
2023/03/16 01:36:12;;;;;;;9.00;5.60;;;5.50;99.90;;;;;;5073146;28;20177;-89
2023/03/16 01:38:38;;;;;;;9.25;6.40;;;5.40;99.90;;;;;;5074526;28;20213;-81
2023/03/16 01:41:05;;;;;;;13.38;6.28;;;5.40;99.90;;;;;;5072974;28;20201;-81
2023/03/16 01:43:33;;;;;;;7.80;5.45;;;5.40;99.90;;;;;;5073103;28;20295;-82
2023/03/16 01:46:05;;;;;;;9.50;6.25;;;5.30;99.90;;;;;;5072944;28;20641;-88
2023/03/16 01:48:59;;;;;;;10.50;5.50;;;5.40;99.90;;;;;;5072814;28;20224;-82
2023/03/16 01:51:31;;;;;;;10.50;5.78;;;5.30;99.90;;;;;;5063882;28;20181;-88
2023/03/16 01:54:05;;;;;;;11.95;6.85;;;5.30;99.90;;;;;;5074446;28;20208;-83
2023/03/16 01:56:38;;;;;;;9.52;6.35;;;5.30;99.90;;;;;;5074089;28;20187;-89
2023/03/16 01:59:10;;;;;;;9.20;5.35;;;5.30;99.90;;;;;;5074364;28;20520;-83
2023/03/16 02:01:37;;;;;;;9.40;6.40;;;5.30;99.90;;;;;;5072678;28;20220;-89
2023/03/16 02:04:16;;;;;;;8.30;6.15;;;5.30;99.90;;;;;;5089636;28;20626;-89
2023/03/16 02:06:43;;;;;;;9.30;5.70;;;5.40;99.90;;;;;;5074006;28;20661;-83
2023/03/16 02:09:10;;;;;;;8.10;5.97;;;5.40;99.90;;;;;;5074735;28;20240;-89
2023/03/16 02:11:35;;;;;;;14.02;5.35;;;5.40;99.90;;;;;;5074985;28;20548;-89
2023/03/16 02:14:08;;;;;;;12.83;7.40;;;5.40;99.90;;;;;;5072453;28;20185;-83
2023/03/16 02:16:34;;;;;;;9.15;6.45;;;5.40;99.90;;;;;;5073806;28;20483;-89
2023/03/16 02:18:59;;;;;;;8.95;5.72;;;5.40;99.90;;;;;;5074078;28;20625;-82
2023/03/16 02:21:37;;;;;;;12.10;6.63;;;5.40;99.90;;;;;;5073765;28;20219;-87
2023/03/16 02:24:06;;;;;;;9.93;6.53;;;5.40;99.90;;;;;;5074185;28;20417;-89
2023/03/16 02:26:46;;;;;;;9.93;6.45;;;5.40;99.90;;;;;;5073595;28;20220;-83
2023/03/16 02:29:28;;;;;;;7.60;5.95;;;5.30;99.90;;;;;;5074058;28;20174;-81
2023/03/16 02:31:56;;;;;;;9.13;6.53;;;5.30;99.90;;;;;;5072695;28;20589;-82
2023/03/16 02:34:23;;;;;;;8.30;6.20;;;5.30;99.90;;;;;;5074233;28;20208;-88
2023/03/16 02:36:51;;;;;;;8.52;6.40;;;5.30;99.90;;;;;;5072445;28;20178;-82
2023/03/16 02:39:18;;;;;;;8.98;6.28;;;5.20;99.90;;;;;;5072738;28;20642;-82
2023/03/16 02:41:44;;;;;;;10.05;6.60;;;5.20;99.90;;;;;;5074817;28;20669;-82
2023/03/16 02:44:23;;;;;;;9.35;6.10;;;5.20;99.90;;;;;;5090267;28;20177;-81
2023/03/16 02:46:50;;;;;;;14.57;6.45;;;5.20;99.90;;;;;;5073605;28;20165;-88
2023/03/16 02:49:33;;;;;;;9.00;7.18;;;5.20;99.90;;;;;;5073740;28;20224;-84
2023/03/16 02:51:59;;;;;;;9.63;6.88;;;5.10;99.90;;;;;;5073547;28;20220;-89
2023/03/16 02:54:24;;;;;;;9.10;6.57;;;5.10;99.90;;;;;;5072371;28;20264;-89
2023/03/16 02:56:50;;;;;;;8.43;6.40;;;5.00;99.90;;;;;;5073648;28;20814;-89
2023/03/16 02:59:16;;;;;;;12.63;8.37;;;5.00;99.90;;;;;;5089208;28;20265;-82
2023/03/16 03:01:42;;;;;;;12.10;7.20;;;4.90;99.90;;;;;;5071944;28;20177;-89
2023/03/16 03:04:08;;;;;;;9.17;6.20;;;4.90;99.90;;;;;;5089207;28;20181;-81
2023/03/16 03:06:34;;;;;;;14.03;6.93;;;4.90;99.90;;;;;;5073414;28;20184;-83
2023/03/16 03:09:00;;;;;;;9.10;7.20;;;4.90;99.90;;;;;;5074215;28;20509;-90
2023/03/16 03:11:27;;;;;;;10.65;7.70;;;4.90;99.90;;;;;;5075914;28;20264;-82
2023/03/16 03:13:54;;;;;;;10.02;7.22;;;4.80;99.90;;;;;;5075681;28;20220;-88
2023/03/16 03:16:20;;;;;;;9.27;6.45;;;4.70;99.90;;;;;;5077538;28;20170;-89
2023/03/16 03:18:46;;;;;;;11.65;7.10;;;4.70;99.90;;;;;;5078423;28;20226;-90
2023/03/16 03:21:12;;;;;;;10.25;7.13;;;4.60;99.90;;;;;;5075783;28;20181;-88
2023/03/16 03:23:38;;;;;;;8.55;7.53;;;4.60;99.90;;;;;;5076880;28;20201;-88
2023/03/16 03:26:04;;;;;;;8.37;7.17;;;4.50;99.90;;;;;;5076827;28;20173;-83
2023/03/16 03:28:33;;;;;;;11.80;7.57;;;4.50;99.90;;;;;;5075334;28;20507;-81
2023/03/16 03:30:59;;;;;;;8.45;6.72;;;4.40;99.90;;;;;;5092248;28;20280;-82
2023/03/16 03:33:24;;;;;;;9.27;6.35;;;4.40;99.90;;;;;;5076623;28;20267;-89
2023/03/16 03:35:57;;;;;;;11.97;7.90;;;4.40;99.90;;;;;;5092587;28;20662;-85
2023/03/16 03:38:24;;;;;;;9.93;6.28;;;4.40;99.90;;;;;;5076412;28;20201;-82
2023/03/16 03:40:51;;;;;;;8.50;6.22;;;4.40;99.90;;;;;;5076468;28;20542;-88
2023/03/16 03:43:17;;;;;;;14.32;7.75;;;4.40;99.90;;;;;;5076606;28;20574;-82
2023/03/16 03:45:43;;;;;;;11.60;7.00;;;4.30;99.90;;;;;;5075280;28;20177;-83
2023/03/16 03:48:09;;;;;;;9.03;7.53;;;4.30;99.90;;;;;;5091819;28;20634;-82
2023/03/16 03:50:34;;;;;;;8.83;6.50;;;4.30;99.90;;;;;;5077709;28;20210;-87
2023/03/16 03:53:00;;;;;;;8.50;7.23;;;4.30;99.90;;;;;;5076814;28;20577;-82
2023/03/16 03:55:26;;;;;;;10.33;6.87;;;4.30;99.90;;;;;;5075278;28;20414;-87
2023/03/16 03:57:51;;;;;;;12.27;7.67;;;4.20;99.90;;;;;;5091775;28;20287;-81
2023/03/16 04:00:20;;;;;;;9.97;7.07;;;4.10;99.90;;;;;;5091656;28;20177;-82
2023/03/16 04:02:46;;;;;;;12.82;7.13;;;4.20;99.90;;;;;;5075797;28;20212;-88
2023/03/16 04:05:12;;;;;;;13.25;8.60;;;4.20;99.90;;;;;;5076207;28;20264;-84
2023/03/16 04:07:38;;;;;;;13.20;8.33;;;4.20;99.90;;;;;;5075898;28;20284;-85
2023/03/16 04:10:05;;;;;;;10.10;7.30;;;4.20;99.90;;;;;;5075785;28;20180;-88
2023/03/16 04:12:30;;;;;;;10.77;7.30;;;4.30;99.90;;;;;;5075590;28;20640;-82
2023/03/16 04:14:56;;;;;;;14.20;7.70;;;4.40;99.90;;;;;;5075846;28;20228;-88
2023/03/16 04:17:23;;;;;;;10.83;6.60;;;4.40;99.90;;;;;;5075807;28;20236;-88
2023/03/16 04:19:48;;;;;;;10.63;7.10;;;4.50;99.90;;;;;;5073651;28;20550;-81
2023/03/16 04:22:15;;;;;;;12.10;7.60;;;4.50;99.90;;;;;;5075523;28;20300;-88
2023/03/16 04:24:42;;;;;;;12.85;8.55;;;4.60;99.90;;;;;;5076101;28;20177;-89
2023/03/16 04:27:08;;;;;;;9.30;7.70;;;4.60;99.90;;;;;;5075627;28;20197;-89
2023/03/16 04:29:34;;;;;;;13.63;8.52;;;4.60;99.90;;;;;;5074389;28;20181;-82
2023/03/16 04:31:59;;;;;;;9.73;7.30;;;4.60;99.90;;;;;;5075440;28;20201;-82
2023/03/16 04:34:25;;;;;;;12.10;8.27;;;4.70;99.90;;;;;;5075778;28;20173;-82
2023/03/16 04:36:52;;;;;;;11.43;8.10;;;4.70;99.90;;;;;;5075275;28;20192;-89
2023/03/16 04:39:21;;;;;;;12.30;7.68;;;4.70;99.90;;;;;;5074211;28;20653;-89
2023/03/16 04:41:47;;;;;;;11.32;7.55;;;4.60;99.90;;;;;;5075389;28;20173;-88
2023/03/16 04:44:13;;;;;;;11.85;6.97;;;4.50;99.90;;;;;;5068488;28;20283;-89
2023/03/16 04:46:39;;;;;;;10.60;8.18;;;4.50;99.90;;;;;;5055308;28;20166;-83
2023/03/16 04:49:08;;;;;;;17.20;8.10;;;4.50;99.90;;;;;;5055596;28;20497;-89
2023/03/16 04:51:36;;;;;;;13.00;7.72;;;4.50;99.90;;;;;;5054855;28;20419;-89
2023/03/16 04:54:02;;;;;;;10.25;7.22;;;4.40;99.90;;;;;;5067404;28;20324;-84
2023/03/16 04:56:28;;;;;;;11.88;8.10;;;4.40;99.90;;;;;;5074816;28;20197;-82
2023/03/16 04:58:55;;;;;;;12.53;8.23;;;4.30;99.90;;;;;;5073555;28;20212;-90
2023/03/16 05:01:22;;;;;;;14.68;8.50;;;4.10;99.90;;;;;;5074847;28;20752;-88
2023/03/16 05:03:48;;;;;;;14.68;7.20;;;4.00;99.90;;;;;;5072957;28;20204;-84
2023/03/16 05:06:14;;;;;;;11.10;7.20;;;3.90;99.90;;;;;;5072578;28;20169;-85
2023/03/16 05:08:40;;;;;;;13.38;7.30;;;3.90;99.90;;;;;;5073138;28;20197;-85
2023/03/16 05:11:06;;;;;;;8.47;6.33;;;3.90;99.90;;;;;;5071675;28;20246;-85
2023/03/16 05:13:32;;;;;;;10.63;7.20;;;3.90;99.90;;;;;;5071575;28;20232;-84
2023/03/16 05:15:57;;;;;;;7.93;6.38;;;4.10;99.90;;;;;;5073170;28;20747;-86
2023/03/16 05:18:23;;;;;;;10.50;6.80;;;5.10;99.90;;;;;;5072351;28;20236;-85
2023/03/16 05:20:54;;;;;;;14.47;6.93;;;5.40;99.90;;;;;;5072879;28;20184;-84
2023/03/16 05:23:21;;;;;;;12.65;7.10;;;5.00;99.90;;;;;;5071747;28;20540;-85
2023/03/16 05:25:48;;;;;;;17.70;7.63;;;4.80;99.90;;;;;;5067287;28;20548;-84
2023/03/16 05:28:14;;;;;;;12.95;9.57;;;4.70;99.90;;;;;;5059534;28;20346;-85
2023/03/16 05:30:41;;;;;;;12.93;8.00;;;4.60;99.90;;;;;;5059813;28;20602;-84
2023/03/16 05:33:07;;;;;;;12.57;8.55;;;4.60;99.90;;;;;;5059285;28;20225;-85
2023/03/16 05:35:33;;;;;;;9.75;6.82;;;4.60;99.90;;;;;;5059430;28;20693;-85
2023/03/16 05:37:58;;;;;;;18.50;7.25;;;4.60;99.90;;;;;;5054899;28;20201;-85
2023/03/16 05:40:25;;;;;;;11.87;7.50;;;4.50;99.90;;;;;;5062786;28;20205;-84
2023/03/16 05:42:54;;;;;;;17.00;8.63;;;4.50;99.90;;;;;;5061210;28;20207;-86
2023/03/16 05:45:20;;;;;;;9.55;8.25;;;4.50;99.90;;;;;;5062277;28;20185;-85
2023/03/16 05:47:46;;;;;;;11.95;7.22;;;4.50;99.90;;;;;;5062242;28;20189;-85
2023/03/16 05:50:15;;;;;;;11.18;8.55;;;4.50;99.90;;;;;;5061287;28;20224;-84
2023/03/16 05:52:43;;;;;;;18.42;6.88;;;4.50;99.90;;;;;;5063529;28;20205;-85
2023/03/16 05:55:10;;;;;;;9.48;7.10;;;4.60;99.90;;;;;;5062742;28;20200;-85
2023/03/16 05:57:36;;;;;;;10.68;7.32;;;4.60;99.90;;;;;;5062102;28;20232;-85
2023/03/16 06:00:12;;;;;;;12.07;8.00;;;4.70;99.90;;;;;;5065579;28;20169;-85
2023/03/16 06:02:37;;;;;;;12.25;7.68;;;4.70;99.90;;;;;;5065082;28;20228;-85
2023/03/16 06:05:04;;;;;;;10.70;7.37;;;4.80;99.90;;;;;;5068865;28;20205;-86
2023/03/16 06:07:29;;;;;;;11.02;7.15;;;4.80;99.90;;;;;;5083007;28;20205;-85
2023/03/16 06:09:55;;;;;;;7.60;6.80;;;4.90;99.90;;;;;;5067048;28;20173;-85
2023/03/16 06:12:21;;;;;;;10.93;7.73;;;5.00;99.90;;;;;;5071066;28;20252;-85
2023/03/16 06:14:46;;;;;;;10.10;7.07;;;5.10;99.90;;;;;;5069260;28;20216;-85
2023/03/16 06:17:12;;;;;;;8.60;7.30;;;5.20;99.90;;;;;;5072561;28;20224;-85
2023/03/16 06:19:38;;;;;;;10.20;7.33;;;5.20;99.90;;;;;;5067452;28;20205;-85
2023/03/16 06:22:03;;;;;;;11.60;7.63;;;5.10;99.90;;;;;;5061957;28;20262;-86
2023/03/16 06:24:29;;;;;;;8.33;6.93;;;5.00;99.90;;;;;;5079813;28;20170;-83
2023/03/16 06:26:55;;;;;;;9.07;7.20;;;5.00;99.90;;;;;;5064704;28;20205;-85
2023/03/16 06:29:21;;;;;;;12.10;8.33;;;5.00;99.90;;;;;;5064672;28;20535;-84
2023/03/16 06:31:51;;;;;;;11.50;7.70;;;5.00;99.90;;;;;;5066545;28;20192;-84
2023/03/16 06:34:17;;;;;;;13.45;7.30;;;5.00;99.90;;;;;;5066183;28;20193;-85
2023/03/16 06:36:42;;;;;;;12.70;8.10;;;5.10;99.90;;;;;;5065276;28;20270;-78
2023/03/16 06:39:08;;;;;;;10.90;8.07;;;5.10;99.90;;;;;;5060034;28;20177;-81
2023/03/16 06:41:34;;;;;;;10.60;7.73;;;5.20;99.90;;;;;;5071567;28;20281;-82
2023/03/16 06:44:01;;;;;;;11.18;7.18;;;5.20;99.90;;;;;;5067198;28;20438;-82
2023/03/16 06:46:27;;;;;;;12.73;8.10;;;5.30;99.90;;;;;;5075228;28;20266;-83
2023/03/16 06:48:54;;;;;;;8.90;8.00;;;5.30;99.90;;;;;;5071179;28;20633;-84
2023/03/16 06:51:19;;;;;;;10.68;8.00;;;5.40;99.90;;;;;;5074677;28;20516;-83
2023/03/16 06:53:45;;;;;;;8.37;6.67;;;5.50;99.90;;;;;;5075331;28;20384;-83
2023/03/16 06:56:11;;;;;;;12.67;8.53;;;5.60;99.90;;;;;;5065487;28;20269;-82
2023/03/16 06:58:37;;;;;;;11.87;8.87;;;5.70;99.90;;;;;;5070681;28;20200;-82
2023/03/16 07:01:03;;;;;;;12.90;8.13;;;5.80;99.90;;;;;;5068070;28;20173;-83
2023/03/16 07:03:30;;;;;;;14.40;8.30;;;5.90;99.90;;;;;;5071136;28;20445;-84
2023/03/16 07:05:55;;;;;;;9.80;8.10;;;6.00;99.90;;;;;;5069419;28;20185;-82
2023/03/16 07:08:21;;;;;;;9.17;7.40;;;6.10;99.90;;;;;;5071143;28;20204;-84
2023/03/16 07:10:47;;;;;;;12.63;7.90;;;6.20;99.90;;;;;;5075923;28;20541;-82
2023/03/16 07:13:12;;;;;;;10.27;7.53;;;6.30;99.90;;;;;;5070516;28;20308;-83
2023/03/16 07:15:38;;;;;;;10.80;7.17;;;6.50;99.90;;;;;;5064326;28;20229;-84
2023/03/16 07:18:04;;;;;;;8.53;6.90;;;6.50;99.90;;;;;;5072290;28;20665;-83
2023/03/16 07:20:31;;;;;;;9.93;8.00;;;6.70;99.90;;;;;;5075328;28;20200;-83
2023/03/16 07:22:59;;;;;;;10.32;7.50;;;6.80;99.90;;;;;;5074479;28;20448;-83
2023/03/16 07:25:24;;;;;;;8.95;7.25;;;6.90;99.90;;;;;;5074326;28;20189;-83
2023/03/16 07:27:50;;;;;;;15.80;7.43;;;7.10;99.90;;;;;;5076154;28;20189;-83
2023/03/16 07:30:16;;;;;;;7.93;6.80;;;7.20;99.90;;;;;;5076305;28;20180;-81
2023/03/16 07:32:42;;;;;;;9.53;6.80;;;7.30;99.90;;;;;;5071901;28;20223;-82
2023/03/16 07:35:10;;;;;;;11.73;6.72;;;7.40;99.90;;;;;;5070971;28;20442;-82
2023/03/16 07:37:36;;;;;;;10.27;6.53;;;7.60;99.90;;;;;;5066748;28;20482;-83
2023/03/16 07:40:04;;;;;;;8.18;6.10;;;7.80;99.90;;;;;;5067999;28;20675;-83
2023/03/16 07:42:30;;;;;;;11.80;6.95;;;7.90;99.90;;;;;;5060645;28;20201;-83
2023/03/16 07:44:56;;;;;;;9.30;6.60;;;;;;;;;;5071924;28;20250;-84
2023/03/16 07:47:23;;;;;;;8.02;6.75;;;;;;;;;;5067472;28;20498;-83
2023/03/16 07:49:49;;;;;;;9.30;6.93;;;;;;;;;;5069233;28;20224;-82
2023/03/16 07:52:15;;;;;;;15.23;8.55;;;;;;;;;;5068739;28;20232;-82
2023/03/16 07:54:42;;;;;;;10.13;7.07;;;;;;;;;;5070788;28;20201;-83
2023/03/16 07:57:08;;;;;;;10.10;6.30;;;;;;;;;;5072638;28;20209;-83
2023/03/16 07:59:34;;;;;;;10.93;6.18;;;;;;;;;;5071157;28;20284;-83
2023/03/16 08:02:00;;;;;;;13.23;7.93;;;;;;;;;;5069742;28;20295;-81
2023/03/16 08:04:26;;;;;;;8.75;6.38;;;;;;;;;;5066631;28;20479;-80
2023/03/16 08:06:58;;;;;;;6.73;5.90;;;;;;;;;;5071213;28;20181;-82
2023/03/16 08:09:24;;;;;;;8.05;5.97;;;;;;;;;;5067755;28;20964;-82
2023/03/16 08:11:50;;;;;;;12.10;9.77;;;;;;;;;;5070936;28;20188;-82
2023/03/16 08:14:16;;;;;;;6.67;5.63;;;;;;;;;;5068539;28;20331;-85
2023/03/16 08:16:43;;;;;;;9.75;6.25;;;;;;;;;;5061993;28;20437;-82
2023/03/16 08:19:10;;;;;;;9.93;6.18;;;;;;;;;;5066287;28;20185;-80
2023/03/16 08:21:36;;;;;;;6.88;6.00;;;;;;;;;;5072883;28;20185;-82
2023/03/16 08:24:02;;;;;;;7.25;6.10;;;;;;;;;;5071616;28;20187;-83
2023/03/16 08:26:28;;;;;;;9.32;5.65;;;;;;;;;;5072271;28;20559;-82
2023/03/16 08:28:55;;;;;;;7.97;6.10;;;;;;;;;;5069945;28;20670;-83
2023/03/16 08:31:24;;;;;;;8.83;5.70;;;;;;;;;;5072022;28;20527;-83
2023/03/16 08:33:50;;;;;;;7.93;5.57;;;;;;;;;;5069955;28;20473;-83
2023/03/16 08:36:17;;;;;;;9.83;5.60;;;;;;;;;;5061374;28;20802;-83
2023/03/16 08:38:43;;;;;;;9.60;6.27;;;;;;;;;;5072922;28;20449;-83
2023/03/16 08:41:11;;;;;;;12.57;6.70;;;;;;;;;;5072395;28;20409;-83
2023/03/16 08:43:37;;;;;;;7.57;5.13;;;;;;;;;;5068713;28;20584;-83
2023/03/16 08:46:05;;;;;;;7.60;5.87;;;;;;;;;;5062836;28;20432;-84
2023/03/16 08:48:35;;;;;;;6.93;5.70;;;;;;;;;;5064839;28;20487;-83
2023/03/16 08:51:02;;;;;;;7.17;5.20;;;;;;;;;;5068785;28;20501;-82
2023/03/16 08:53:29;;;;;;;8.30;6.70;;;;;;;;;;5069128;28;20853;-82
2023/03/16 08:56:03;;;;;;;13.60;7.80;;;;;;;;;;5065932;28;20421;-83
2023/03/16 08:58:31;;;;;;;8.07;5.33;;;;;;;;;;5067835;28;20474;-83
2023/03/16 09:00:57;;;;;;;8.53;6.20;;;;;;;;;;5067684;28;20437;-83
2023/03/16 09:03:23;;;;;;;8.73;6.33;;;;;;;;;;5068609;28;20463;-82
2023/03/16 09:05:50;;;;;;;8.53;5.40;;;;;;;;;;5066414;28;20478;-83
2023/03/16 09:08:17;;;;;;;5.93;4.63;;;;;;;;;;5066323;28;20442;-83
2023/03/16 09:10:43;;;;;;;11.43;5.80;;;;;;;;;;5075836;28;20425;-83
2023/03/16 09:13:09;;;;;;;7.70;6.03;;;;;;;;;;5068713;28;20832;-83
2023/03/16 09:15:36;;;;;;;6.30;5.70;;;;;;;;;;5057332;28;20476;-84
2023/03/16 09:18:02;;;;;;;6.13;5.00;;;;;;;;;;5067478;28;20586;-83
2023/03/16 09:20:29;;;;;;;6.00;5.50;;;;;;;;;;5067566;28;20418;-83
2023/03/16 09:22:56;;;;;;;7.27;5.40;;;8.10;99.90;;;;;;5071307;28;20453;-83
2023/03/16 09:25:24;;;;;;;7.23;5.20;;;22.40;68.90;;;;;;5067279;28;20453;-82
2023/03/16 09:27:51;;;;;;;5.63;5.10;;;21.90;68.00;;;;;;5070297;28;20903;-82
2023/03/16 09:30:17;;;;;;;5.30;4.70;;;21.40;69.90;;;;;;5068162;28;20930;-82
2023/03/16 09:32:43;;;;;;;5.60;5.00;;;21.30;69.00;;;;;;5065806;28;20475;-83
2023/03/16 09:35:09;;;;;;;6.90;4.90;;;21.50;68.90;;;;;;5066289;28;20760;-82
2023/03/16 09:37:35;;;;;;;6.43;4.90;;;21.60;70.80;;;;;;5061668;28;20437;-82
2023/03/16 09:40:00;;;;;;;9.10;4.70;;;21.60;70.50;;;;;;5050328;28;20492;-83
2023/03/16 09:42:37;;;;;;;6.07;4.87;;;21.60;71.30;;;;;;5055892;28;20635;-82
2023/03/16 09:45:30;;;;;;;5.40;4.43;;;21.40;69.20;;;;;;5055683;28;20176;-82
2023/03/16 09:48:00;;;;;;;6.23;4.57;;;21.10;76.40;;;;;;5062711;28;20523;-82
2023/03/16 09:50:30;;;;;;;6.53;4.17;;;21.00;76.60;;;;;;5065279;28;20439;-83
2023/03/16 09:53:15;;;;;;;6.90;4.23;;;21.10;73.90;;;;;;5064244;28;21028;-82
2023/03/16 09:55:44;;;;;;;4.97;4.40;;;21.30;68.10;;;;;;5061304;28;20464;-82
2023/03/16 09:58:16;;;;;;;6.10;4.63;;;21.20;71.50;;;;;;5060339;28;20506;-82
2023/03/16 10:00:53;;;;;;;5.87;5.33;;;21.10;72.60;;;;;;5067412;28;20466;-82
2023/03/16 10:03:57;;;;;;;5.33;4.40;;;20.90;70.40;;;;;;5064634;28;20744;-83
2023/03/16 10:06:25;;;;;;;6.13;4.50;;;20.50;73.60;;;;;;5060118;28;20427;-83
2023/03/16 10:09:25;;;;;;;5.23;4.73;;;20.00;72.80;;;;;;5063032;28;20455;-82
2023/03/16 10:11:56;;;;;;;4.30;3.90;;;19.70;73.90;;;;;;5051237;28;20469;-82
2023/03/16 10:14:29;;;;;;;6.50;4.77;;;19.30;77.80;;;;;;5057842;28;20990;-82
2023/03/16 10:17:00;;;;;;;9.00;5.20;;;18.90;77.40;;;;;;5061943;28;20453;-82
2023/03/16 10:19:41;;;;;;;6.27;5.27;;;18.40;74.90;;;;;;5058899;28;20450;-82
2023/03/16 10:22:34;;;;;;;6.70;5.33;;;17.80;80.00;;;;;;5059424;28;20718;-82
2023/03/16 10:25:22;;;;;;;9.10;5.07;;;17.30;75.20;;;;;;5066329;28;20471;-82
2023/03/16 10:27:48;;;;;;;5.83;5.20;;;16.80;75.50;;;;;;5060147;28;20874;-81
2023/03/16 10:30:27;;;;;;;5.97;5.37;;;16.40;79.80;;;;;;5065500;28;20825;-81
2023/03/16 10:32:59;;;;;;;8.30;5.33;;;16.00;76.10;;;;;;5058848;28;20545;-82
2023/03/16 10:35:48;;;;;;;5.63;5.10;;;15.70;75.00;;;;;;5066863;28;20970;-81
2023/03/16 10:38:27;;;;;;;6.20;4.20;;;15.40;76.90;;;;;;5062122;28;21275;-81
2023/03/16 10:40:53;;;;;;;7.43;5.60;;;15.30;75.30;;;;;;5065958;28;20492;-81
2023/03/16 10:43:19;;;;;;;8.53;6.73;;;15.10;76.50;;;;;;5065510;28;20835;-82
2023/03/16 10:45:46;;;;;;;6.00;5.17;;;15.00;78.60;;;;;;5065067;28;20520;-81
2023/03/16 10:48:14;;;;;;;6.03;5.50;;;14.80;79.60;;;;;;5064084;28;20995;-82
2023/03/16 10:50:41;;;;;;;6.40;4.97;;;14.80;80.40;;;;;;5052738;28;20418;-81
2023/03/16 10:53:22;;;;;;;5.17;4.23;;;14.70;77.60;;;;;;5062515;28;20561;-82
2023/03/16 10:55:49;;;;;;;6.43;4.43;;;14.60;83.20;;;;;;5061786;28;20738;-81
2023/03/16 10:58:44;;;;;;;5.43;4.87;;;14.60;83.00;;;;;;5062738;28;20514;-81
2023/03/16 11:01:25;;;;;;;5.40;4.80;;;14.60;81.30;;;;;;5062959;28;20427;-81
2023/03/16 11:03:54;;;;;;;5.20;4.70;;;14.70;82.80;;;;;;5068602;28;20472;-81
2023/03/16 11:06:31;;;;;;;6.20;5.00;;;14.60;77.80;;;;;;5061461;28;21210;-81
2023/03/16 11:09:18;;;;;;;7.00;5.40;;;14.40;76.60;;;;;;5069524;28;20445;-82
2023/03/16 11:11:48;;;;;;;6.70;5.63;;;14.20;76.90;;;;;;5068413;28;20434;-82
2023/03/16 11:14:17;;;;;;;7.80;5.83;;;14.00;82.30;;;;;;5064443;28;20481;-82
2023/03/16 11:17:08;;;;;;;8.17;5.80;;;14.00;81.00;;;;;;5064685;28;20446;-83
2023/03/16 11:19:40;;;;;;;7.20;5.53;;;13.90;81.60;;;;;;5061336;28;20441;-82
2023/03/16 11:22:17;;;;;;;5.97;5.37;;;14.10;81.00;;;;;;5065846;28;20449;-82
2023/03/16 11:24:52;;;;;;;8.33;5.37;;;14.30;84.00;;;;;;5071373;28;20468;-81
2023/03/16 11:27:44;;;;;;;4.90;4.00;;;14.40;79.80;;;;;;5073444;28;20536;-82
2023/03/16 11:30:33;;;;;;;6.40;5.33;;;14.60;78.30;;;;;;5065679;28;20437;-83
2023/03/16 11:32:59;;;;;;;4.83;4.33;;;14.70;78.60;;;;;;5061716;28;20558;-81
2023/03/16 11:35:44;;;;;;;7.07;5.77;;;14.60;79.30;;;;;;5070175;28;20426;-80
2023/03/16 11:38:31;;;;;;;5.90;4.53;;;14.60;78.60;;;;;;5069885;28;21024;-82
2023/03/16 11:40:59;;;;;;;4.23;3.93;;;14.50;76.60;;;;;;5057776;28;20457;-82
2023/03/16 11:43:55;;;;;;;4.53;4.13;;;14.40;77.30;;;;;;5060825;28;20462;-82
2023/03/16 11:46:55;;;;;;;4.40;3.30;;;14.30;80.00;;;;;;5063738;28;20450;-83
2023/03/16 11:49:31;;;;;;;5.33;4.47;;;14.40;82.50;;;;;;5054039;28;20535;-82
2023/03/16 11:52:07;;;;;;;6.07;4.90;;;14.40;79.50;;;;;;5078343;28;20449;-81
2023/03/16 11:55:01;;;;;;;7.70;4.30;;;14.50;78.10;;;;;;5062591;28;20781;-82
2023/03/16 11:57:52;;;;;;;5.30;4.27;;;14.50;83.10;;;;;;5060356;28;20460;-83
2023/03/16 12:00:26;;;;;;;6.00;4.57;;;14.50;85.20;;;;;;5057241;28;20839;-81
2023/03/16 12:03:39;;;;;;;5.13;4.10;;;14.30;77.80;;;;;;5059917;28;20562;-83
2023/03/16 12:06:20;;;;;;;6.20;4.00;;;14.00;76.00;;;;;;5062108;28;20521;-82
2023/03/16 12:08:49;;;;;;;6.17;4.70;;;13.70;74.80;;;;;;5058884;28;20458;-80
2023/03/16 12:11:45;;;;;;;4.53;4.10;;;13.60;76.50;;;;;;5059388;28;20488;-82
2023/03/16 12:14:37;;;;;;;4.90;4.40;;;13.70;77.80;;;;;;5057076;28;20493;-81
2023/03/16 12:17:24;;;;;;;5.63;4.63;;;13.80;79.60;;;;;;5088526;28;20516;-83
2023/03/16 12:20:02;;;;;;;5.27;4.77;;;13.90;82.60;;;;;;5057490;28;20446;-80
2023/03/16 12:22:47;;;;;;;4.47;4.07;;;14.10;81.40;;;;;;5055680;28;20682;-83
2023/03/16 12:25:26;;;;;;;6.80;4.10;;;14.10;80.70;;;;;;5056934;28;20770;-81
2023/03/16 12:27:57;;;;;;;5.17;3.80;;;14.00;83.90;;;;;;5059740;28;20441;-80
2023/03/16 12:30:49;;;;;;;5.10;4.07;;;14.00;83.10;;;;;;5061822;28;20520;-81
2023/03/16 12:33:18;;;;;;;4.77;3.40;;;13.80;75.60;;;;;;5058687;28;20481;-83
2023/03/16 12:36:09;;;;;;;6.63;6.07;;;13.70;75.00;;;;;;5058765;28;20890;-82
2023/03/16 12:38:52;;;;;;;5.60;3.90;;;13.70;79.30;;;;;;5058017;28;20484;-83
2023/03/16 12:41:35;;;;;;;4.60;3.30;;;13.70;76.40;;;;;;5058307;28;20465;-84
2023/03/16 12:44:22;;;;;;;6.47;4.23;;;13.80;78.10;;;;;;5057463;28;20457;-81
2023/03/16 12:46:58;;;;;;;4.20;3.90;;;13.90;75.60;;;;;;5053309;28;20942;-82
2023/03/16 12:49:25;;;;;;;5.20;4.40;;;13.80;75.40;;;;;;5056961;28;20431;-84
2023/03/16 12:52:00;;;;;;;7.00;5.10;;;13.70;77.10;;;;;;5064788;28;20438;-81
2023/03/16 12:54:26;;;;;;;6.93;4.67;;;13.70;78.20;;;;;;5059734;28;20456;-81
2023/03/16 12:57:01;;;;;;;8.20;4.93;;;13.60;80.10;;;;;;5059852;28;21050;-84
2023/03/16 12:59:37;;;;;;;5.97;4.33;;;13.50;79.70;;;;;;5060921;28;21035;-83
2023/03/16 13:02:05;;;;;;;4.83;4.40;;;13.40;76.50;;;;;;5062107;28;20457;-84
2023/03/16 13:04:59;;;;;;;5.00;3.90;;;13.30;78.50;;;;;;5060347;28;20434;-83
2023/03/16 13:07:29;;;;;;;6.30;3.93;;;13.40;76.80;;;;;;5059214;28;20458;-82
2023/03/16 13:09:59;;;;;;;4.87;2.90;;;13.40;76.50;;;;;;5065440;28;20770;-83
2023/03/16 13:12:31;;;;;;;3.80;3.40;;;13.50;76.10;;;;;;5060924;28;20956;-83
2023/03/16 13:14:57;;;;;;;3.83;3.43;;;13.60;77.30;;;;;;5056138;28;20463;-84
2023/03/16 13:17:32;;;;;;;3.90;3.27;;;13.70;76.60;;;;;;5059182;28;20442;-82